Time;durP1;ratioP1;P1;durP2;ratioP2;P2;SDS_P1;SDS_P2;PMS_P1;PMS_P2;Temp;Humidity;BMP_temperature;BMP_pressure;BME280_temperature;BME280_humidity;BME280_pressure;Samples;Min_cycle;Max_cycle;Signal;HPM_P1;HPM_P2
2023/12/23 00:00:16;;;;;;;0.40;0.40;;;8.70;99.90;;;;;;4957097;28;20030;-85
2023/12/23 00:02:43;;;;;;;0.60;0.50;;;8.70;99.90;;;;;;4971829;28;20030;-86
2023/12/23 00:05:08;;;;;;;2.38;0.60;;;8.70;99.90;;;;;;4971977;28;20031;-86
2023/12/23 00:07:35;;;;;;;1.40;0.65;;;8.80;99.90;;;;;;4971415;28;20116;-84
2023/12/23 00:10:03;;;;;;;0.50;0.50;;;8.70;99.90;;;;;;4969216;28;20041;-86
2023/12/23 00:12:29;;;;;;;0.52;0.52;;;8.70;99.90;;;;;;4957716;28;20034;-86
2023/12/23 00:14:54;;;;;;;0.85;0.47;;;8.80;99.90;;;;;;4971558;28;20034;-85
2023/12/23 00:17:20;;;;;;;2.25;0.60;;;8.70;99.90;;;;;;4969637;28;20035;-87
2023/12/23 00:19:45;;;;;;;0.80;0.80;;;8.70;99.90;;;;;;4971467;28;20023;-86
2023/12/23 00:22:11;;;;;;;0.98;0.80;;;8.80;99.90;;;;;;4971007;28;20022;-85
2023/12/23 00:24:36;;;;;;;4.22;0.75;;;8.80;99.90;;;;;;4970927;28;20027;-86
2023/12/23 00:27:02;;;;;;;2.15;0.77;;;8.80;99.90;;;;;;4954357;28;20491;-87
2023/12/23 00:29:27;;;;;;;0.57;0.50;;;8.70;99.90;;;;;;4953724;28;20041;-85
2023/12/23 00:31:53;;;;;;;0.60;0.60;;;8.70;99.90;;;;;;4964450;28;20033;-86
2023/12/23 00:34:19;;;;;;;0.63;0.63;;;8.70;99.90;;;;;;4968890;28;20023;-85
2023/12/23 00:36:45;;;;;;;0.57;0.55;;;8.80;99.90;;;;;;4961246;28;20795;-85
2023/12/23 00:39:10;;;;;;;0.73;0.63;;;8.70;99.90;;;;;;4952665;28;20030;-86
2023/12/23 00:41:37;;;;;;;0.90;0.70;;;8.70;99.90;;;;;;4969350;28;20481;-85
2023/12/23 00:44:02;;;;;;;0.52;0.52;;;8.80;99.90;;;;;;4955940;28;20023;-86
2023/12/23 00:46:28;;;;;;;1.15;0.80;;;8.80;99.90;;;;;;4967468;28;20161;-86
2023/12/23 00:48:54;;;;;;;0.47;0.47;;;8.70;99.90;;;;;;4967289;28;20053;-86
2023/12/23 00:51:20;;;;;;;0.50;0.50;;;8.80;99.90;;;;;;4970876;28;20476;-86
2023/12/23 00:53:46;;;;;;;2.90;0.70;;;8.80;99.90;;;;;;4953756;28;20138;-86
2023/12/23 00:56:17;;;;;;;2.70;0.60;;;8.80;99.90;;;;;;4970871;28;20059;-86
2023/12/23 00:58:42;;;;;;;0.40;0.40;;;8.80;99.90;;;;;;4955522;28;20420;-85
2023/12/23 01:01:08;;;;;;;2.85;0.55;;;8.80;99.90;;;;;;4956089;28;20018;-85
2023/12/23 01:03:33;;;;;;;0.60;0.60;;;8.70;99.90;;;;;;4955424;28;20613;-86
2023/12/23 01:05:59;;;;;;;0.52;0.50;;;8.70;99.90;;;;;;4951752;28;20100;-86
2023/12/23 01:08:25;;;;;;;0.90;0.57;;;8.70;99.90;;;;;;4953291;28;20130;-85
2023/12/23 01:10:51;;;;;;;1.00;0.65;;;8.70;99.90;;;;;;4966835;28;20019;-88
2023/12/23 01:13:16;;;;;;;0.60;0.60;;;8.80;99.90;;;;;;4971611;28;20050;-86
2023/12/23 01:15:42;;;;;;;0.50;0.50;;;8.70;99.90;;;;;;4962713;28;20019;-87
2023/12/23 01:18:07;;;;;;;0.63;0.63;;;8.70;99.90;;;;;;4954878;28;20436;-86
2023/12/23 01:20:33;;;;;;;0.60;0.60;;;8.70;99.90;;;;;;4954676;28;20619;-85
2023/12/23 01:22:59;;;;;;;0.57;0.40;;;8.80;99.90;;;;;;4967282;28;20019;-86
2023/12/23 01:25:24;;;;;;;0.50;0.50;;;8.70;99.90;;;;;;4970281;28;20448;-87
2023/12/23 01:27:50;;;;;;;0.63;0.63;;;8.70;99.90;;;;;;4952711;28;20500;-87
2023/12/23 01:30:15;;;;;;;0.65;0.65;;;8.70;99.90;;;;;;4968794;28;20054;-87
2023/12/23 01:32:41;;;;;;;0.98;0.60;;;8.70;99.90;;;;;;4953723;28;20043;-85
2023/12/23 01:35:07;;;;;;;1.15;0.60;;;8.70;99.90;;;;;;4970477;28;20041;-86
2023/12/23 01:37:32;;;;;;;0.95;0.60;;;8.70;99.90;;;;;;4956417;28;20033;-86
2023/12/23 01:39:58;;;;;;;0.68;0.68;;;8.70;99.90;;;;;;4966137;28;20034;-86
2023/12/23 01:42:23;;;;;;;0.65;0.50;;;8.70;99.90;;;;;;4955657;28;20034;-85
2023/12/23 01:44:49;;;;;;;0.50;0.50;;;8.70;99.90;;;;;;4958509;28;20018;-86
2023/12/23 01:47:15;;;;;;;0.50;0.50;;;8.70;99.90;;;;;;4956907;28;20018;-86
2023/12/23 01:49:42;;;;;;;0.50;0.50;;;8.70;99.90;;;;;;4963736;28;20026;-87
2023/12/23 01:52:08;;;;;;;0.50;0.50;;;8.70;99.90;;;;;;4974106;28;20019;-85
2023/12/23 01:54:33;;;;;;;0.40;0.40;;;8.70;99.90;;;;;;4954784;28;20038;-86
2023/12/23 01:56:59;;;;;;;1.75;0.55;;;8.70;99.90;;;;;;4960251;28;20394;-85
2023/12/23 01:59:25;;;;;;;0.40;0.40;;;8.70;99.90;;;;;;4973997;28;20539;-86
2023/12/23 02:01:52;;;;;;;0.40;0.40;;;8.70;99.90;;;;;;4973825;28;20629;-87
2023/12/23 02:04:18;;;;;;;0.40;0.40;;;8.70;99.90;;;;;;4969088;28;20370;-85
2023/12/23 02:06:44;;;;;;;1.38;0.65;;;8.70;99.90;;;;;;4973800;28;20023;-85
2023/12/23 02:09:10;;;;;;;1.40;1.23;;;8.70;99.90;;;;;;4973401;28;20030;-85
2023/12/23 02:11:49;;;;;;;0.57;0.50;;;8.70;99.90;;;;;;4971491;28;20500;-86
2023/12/23 02:14:24;;;;;;;0.50;0.50;;;8.70;99.90;;;;;;4955853;28;20023;-86
2023/12/23 02:16:50;;;;;;;2.33;0.70;;;8.70;99.90;;;;;;4958698;28;20034;-87
2023/12/23 02:19:15;;;;;;;0.40;0.40;;;8.70;99.90;;;;;;4973668;28;20030;-86
2023/12/23 02:21:41;;;;;;;0.47;0.47;;;8.70;99.90;;;;;;4973480;28;20023;-85
2023/12/23 02:24:07;;;;;;;1.02;0.60;;;8.70;99.90;;;;;;4956207;28;20022;-86
2023/12/23 02:26:35;;;;;;;1.20;0.50;;;8.70;99.90;;;;;;4974979;28;20397;-88
2023/12/23 02:29:02;;;;;;;0.50;0.50;;;8.70;99.90;;;;;;4958914;28;20023;-85
2023/12/23 02:31:28;;;;;;;0.47;0.47;;;8.70;99.90;;;;;;4955819;28;20086;-86
2023/12/23 02:33:54;;;;;;;0.50;0.50;;;8.70;99.90;;;;;;4973377;28;20101;-86
2023/12/23 02:36:23;;;;;;;1.63;0.70;;;8.70;99.90;;;;;;4969831;28;20082;-88
2023/12/23 02:38:49;;;;;;;0.93;0.73;;;8.70;99.90;;;;;;4958676;28;20031;-86
2023/12/23 02:41:14;;;;;;;2.75;1.10;;;8.70;99.90;;;;;;4972897;28;20038;-86
2023/12/23 02:43:40;;;;;;;3.72;0.75;;;8.70;99.90;;;;;;4971942;28;20023;-87
2023/12/23 02:46:06;;;;;;;0.57;0.57;;;8.70;99.90;;;;;;4957108;28;20026;-86
2023/12/23 02:48:31;;;;;;;1.27;0.80;;;8.70;99.90;;;;;;4956048;28;20030;-85
2023/12/23 02:50:57;;;;;;;2.38;0.75;;;8.70;99.90;;;;;;4958934;28;20491;-87
2023/12/23 02:53:22;;;;;;;2.47;0.60;;;8.70;99.90;;;;;;4958207;28;20101;-86
2023/12/23 02:55:48;;;;;;;0.65;0.60;;;8.70;99.90;;;;;;4972054;28;20555;-86
2023/12/23 02:58:13;;;;;;;1.55;0.80;;;8.70;99.90;;;;;;4973224;28;20050;-86
2023/12/23 03:00:39;;;;;;;1.55;0.70;;;8.70;99.90;;;;;;4955655;28;20031;-86
2023/12/23 03:03:04;;;;;;;0.82;0.65;;;8.70;99.90;;;;;;4972529;28;20049;-87
2023/12/23 03:05:30;;;;;;;0.70;0.68;;;8.70;99.90;;;;;;4971211;28;20721;-85
2023/12/23 03:07:55;;;;;;;0.60;0.60;;;8.70;99.90;;;;;;4953718;28;20019;-86
2023/12/23 03:10:21;;;;;;;0.60;0.60;;;8.70;99.90;;;;;;4969897;28;20477;-85
2023/12/23 03:12:47;;;;;;;1.20;0.73;;;8.70;99.90;;;;;;4954798;28;20493;-86
2023/12/23 03:15:12;;;;;;;0.75;0.60;;;8.70;99.90;;;;;;4973421;28;20037;-86
2023/12/23 03:17:38;;;;;;;3.53;0.63;;;8.70;99.90;;;;;;4962357;28;20034;-86
2023/12/23 03:20:04;;;;;;;1.00;0.70;;;8.70;99.90;;;;;;4969364;28;20037;-87
2023/12/23 03:22:30;;;;;;;0.93;0.60;;;8.70;99.90;;;;;;4955340;28;20046;-87
2023/12/23 03:24:56;;;;;;;0.40;0.40;;;8.70;99.90;;;;;;4960115;28;20023;-87
2023/12/23 03:27:21;;;;;;;1.30;0.70;;;8.70;99.90;;;;;;4972421;28;20307;-86
2023/12/23 03:29:47;;;;;;;0.50;0.50;;;8.70;99.90;;;;;;4971616;28;20037;-87
2023/12/23 03:32:12;;;;;;;0.50;0.50;;;8.70;99.90;;;;;;4972300;28;20618;-86
2023/12/23 03:34:40;;;;;;;2.05;0.65;;;8.70;99.90;;;;;;4975912;28;20026;-85
2023/12/23 03:37:06;;;;;;;0.70;0.50;;;8.70;99.90;;;;;;4972212;28;20023;-88
2023/12/23 03:39:31;;;;;;;0.40;0.40;;;8.70;99.90;;;;;;4954629;28;20074;-86
2023/12/23 03:41:57;;;;;;;0.60;0.60;;;8.70;99.90;;;;;;4974841;28;20085;-86
2023/12/23 03:44:22;;;;;;;1.10;0.60;;;8.70;99.90;;;;;;4972251;28;20491;-85
2023/12/23 03:46:48;;;;;;;0.50;0.50;;;8.70;99.90;;;;;;4972191;28;20022;-85
2023/12/23 03:49:13;;;;;;;0.50;0.50;;;8.70;99.90;;;;;;4972413;28;20460;-85
2023/12/23 03:51:39;;;;;;;0.52;0.52;;;8.70;99.90;;;;;;4954132;28;20026;-88
2023/12/23 03:54:04;;;;;;;0.50;0.40;;;8.70;99.90;;;;;;4954447;28;20027;-86
2023/12/23 03:56:31;;;;;;;0.45;0.45;;;8.70;99.90;;;;;;4954364;28;20022;-85
2023/12/23 03:58:58;;;;;;;0.80;0.60;;;8.70;99.90;;;;;;4969627;28;20476;-87
2023/12/23 04:01:23;;;;;;;0.30;0.30;;;8.70;99.90;;;;;;4952505;28;20493;-86
2023/12/23 04:03:49;;;;;;;3.85;0.50;;;8.70;99.90;;;;;;4967986;28;20022;-86
2023/12/23 04:06:15;;;;;;;0.47;0.47;;;8.70;99.90;;;;;;4952765;28;20026;-87
2023/12/23 04:08:41;;;;;;;0.40;0.40;;;8.70;99.90;;;;;;4953079;28;20495;-85
2023/12/23 04:11:07;;;;;;;0.50;0.50;;;8.70;99.90;;;;;;4955050;28;20445;-86
2023/12/23 04:13:33;;;;;;;0.40;0.40;;;8.70;99.90;;;;;;4955640;28;20026;-87
2023/12/23 04:16:01;;;;;;;0.40;0.40;;;8.70;99.90;;;;;;4967990;28;20031;-86
2023/12/23 04:18:27;;;;;;;0.50;0.50;;;8.70;99.90;;;;;;4970705;28;20030;-86
2023/12/23 04:20:52;;;;;;;0.40;0.40;;;8.70;99.90;;;;;;4954071;28;20022;-86
2023/12/23 04:23:18;;;;;;;0.75;0.45;;;8.70;99.90;;;;;;4969464;28;20058;-85
2023/12/23 04:25:43;;;;;;;0.40;0.40;;;8.70;99.90;;;;;;4968474;28;20061;-87
2023/12/23 04:28:11;;;;;;;0.40;0.40;;;8.70;99.90;;;;;;4953964;28;20058;-88
2023/12/23 04:30:36;;;;;;;0.70;0.50;;;8.70;99.90;;;;;;4956010;28;20027;-86
2023/12/23 04:33:02;;;;;;;0.60;0.60;;;8.70;99.90;;;;;;4971115;28;20033;-85
2023/12/23 04:35:28;;;;;;;0.40;0.40;;;8.70;99.90;;;;;;4956038;28;20027;-85
2023/12/23 04:37:53;;;;;;;0.40;0.40;;;8.70;99.90;;;;;;4953870;28;20058;-86
2023/12/23 04:40:19;;;;;;;0.50;0.50;;;8.70;99.90;;;;;;4956363;28;20065;-85
2023/12/23 04:42:44;;;;;;;0.43;0.43;;;8.70;99.90;;;;;;4969248;28;20500;-86
2023/12/23 04:45:10;;;;;;;0.95;0.68;;;8.70;99.90;;;;;;4969722;28;20397;-88
2023/12/23 04:47:35;;;;;;;0.50;0.50;;;8.70;99.90;;;;;;4957816;28;20562;-88
2023/12/23 04:50:03;;;;;;;0.50;0.50;;;8.70;99.90;;;;;;4971087;28;20054;-87
2023/12/23 04:52:28;;;;;;;0.40;0.40;;;8.70;99.90;;;;;;4967117;28;20050;-86
2023/12/23 04:54:54;;;;;;;0.40;0.40;;;8.70;99.90;;;;;;4957911;28;20027;-86
2023/12/23 04:57:19;;;;;;;0.60;0.50;;;8.70;99.90;;;;;;4950721;28;20023;-86
2023/12/23 04:59:45;;;;;;;0.60;0.60;;;8.70;99.90;;;;;;4955228;28;20039;-85
2023/12/23 05:02:10;;;;;;;0.40;0.40;;;8.70;99.90;;;;;;4970762;28;20106;-87
2023/12/23 05:04:36;;;;;;;0.52;0.43;;;8.70;99.90;;;;;;4970650;28;20485;-88
2023/12/23 05:07:02;;;;;;;3.35;0.50;;;8.70;99.90;;;;;;4968914;28;20030;-87
2023/12/23 05:09:27;;;;;;;0.40;0.40;;;8.70;99.90;;;;;;4956091;28;20027;-86
2023/12/23 05:11:53;;;;;;;0.40;0.40;;;8.70;99.90;;;;;;4972535;28;20495;-88
2023/12/23 05:14:19;;;;;;;3.05;0.63;;;8.70;99.90;;;;;;4953638;28;20019;-85
2023/12/23 05:16:44;;;;;;;0.43;0.43;;;8.70;99.90;;;;;;4953541;28;20054;-87
2023/12/23 05:19:10;;;;;;;1.48;0.55;;;8.70;99.90;;;;;;4970035;28;20051;-86
2023/12/23 05:21:35;;;;;;;0.60;0.60;;;8.70;99.90;;;;;;4968971;28;20023;-86
2023/12/23 05:24:01;;;;;;;0.93;0.60;;;8.70;99.90;;;;;;4968903;28;20082;-87
2023/12/23 05:26:26;;;;;;;0.40;0.40;;;8.70;99.90;;;;;;4954685;28;20023;-85
2023/12/23 05:28:52;;;;;;;0.70;0.32;;;8.70;99.90;;;;;;4953303;28;20022;-86
2023/12/23 05:31:17;;;;;;;0.40;0.40;;;8.70;99.90;;;;;;4965633;28;20480;-86
2023/12/23 05:33:43;;;;;;;0.40;0.40;;;8.70;99.90;;;;;;4966331;28;20038;-86
2023/12/23 05:36:09;;;;;;;0.70;0.55;;;8.70;99.90;;;;;;4968380;28;20037;-86
2023/12/23 05:38:34;;;;;;;0.47;0.47;;;8.70;99.90;;;;;;4954340;28;20034;-85
2023/12/23 05:41:00;;;;;;;0.40;0.40;;;8.70;99.90;;;;;;4954845;28;20053;-86
2023/12/23 05:43:26;;;;;;;0.55;0.40;;;8.70;99.90;;;;;;4951004;28;20023;-86
2023/12/23 05:45:52;;;;;;;0.40;0.40;;;8.70;99.90;;;;;;4950956;28;20547;-86
2023/12/23 05:48:17;;;;;;;0.40;0.40;;;8.70;99.90;;;;;;4968478;28;20055;-85
2023/12/23 05:50:43;;;;;;;0.47;0.47;;;8.70;99.90;;;;;;4952859;28;20015;-86
2023/12/23 05:53:08;;;;;;;0.50;0.50;;;8.70;99.90;;;;;;4953398;28;20069;-86
2023/12/23 05:55:34;;;;;;;0.50;0.50;;;8.70;99.90;;;;;;4959446;28;20026;-85
2023/12/23 05:57:59;;;;;;;0.40;0.40;;;8.70;99.90;;;;;;4954372;28;20413;-87
2023/12/23 06:00:25;;;;;;;0.43;0.43;;;8.70;99.90;;;;;;4953017;28;20038;-85
2023/12/23 06:02:50;;;;;;;0.30;0.30;;;8.70;99.90;;;;;;4951379;28;20489;-86
2023/12/23 06:05:16;;;;;;;1.70;0.40;;;8.70;99.90;;;;;;4967313;28;20035;-87
2023/12/23 06:07:42;;;;;;;0.50;0.50;;;8.70;99.90;;;;;;4953097;28;20030;-87
2023/12/23 06:10:08;;;;;;;0.50;0.50;;;8.70;99.90;;;;;;4953593;28;20559;-85
2023/12/23 06:12:33;;;;;;;0.40;0.40;;;8.70;99.90;;;;;;4952255;28;20027;-85
2023/12/23 06:14:59;;;;;;;0.40;0.40;;;8.70;99.90;;;;;;4956109;28;20019;-85
2023/12/23 06:17:27;;;;;;;0.40;0.40;;;8.70;99.90;;;;;;4966833;28;20042;-86
2023/12/23 06:19:53;;;;;;;0.88;0.40;;;8.70;99.90;;;;;;4969051;28;20539;-86
2023/12/23 06:22:19;;;;;;;0.40;0.40;;;8.70;99.90;;;;;;4967041;28;20035;-85
2023/12/23 06:24:44;;;;;;;2.38;0.52;;;8.70;99.90;;;;;;4966536;28;20070;-86
2023/12/23 06:27:10;;;;;;;0.65;0.50;;;8.70;99.90;;;;;;4950298;28;20015;-87
2023/12/23 06:29:35;;;;;;;0.40;0.40;;;8.70;99.90;;;;;;4953953;28;20382;-85
2023/12/23 06:32:02;;;;;;;0.50;0.50;;;8.70;99.90;;;;;;4973439;28;20022;-85
2023/12/23 06:34:27;;;;;;;0.40;0.40;;;8.70;99.90;;;;;;4970947;28;20022;-86
2023/12/23 06:36:53;;;;;;;0.55;0.55;;;8.70;99.90;;;;;;4972453;28;20023;-85
2023/12/23 06:39:18;;;;;;;0.40;0.40;;;8.70;99.90;;;;;;4973450;28;20068;-86
2023/12/23 06:41:45;;;;;;;0.60;0.60;;;8.60;99.90;;;;;;4972906;28;20397;-84
2023/12/23 06:44:11;;;;;;;0.40;0.40;;;8.70;99.90;;;;;;4956166;28;20489;-88
2023/12/23 06:46:36;;;;;;;0.55;0.50;;;8.70;99.90;;;;;;4971811;28;20091;-87
2023/12/23 06:49:02;;;;;;;0.50;0.50;;;8.70;99.90;;;;;;4954466;28;20030;-86
2023/12/23 06:51:27;;;;;;;0.68;0.50;;;8.60;99.90;;;;;;4952585;28;20038;-86
2023/12/23 06:53:55;;;;;;;0.50;0.50;;;8.70;99.90;;;;;;4956430;28;20736;-87
2023/12/23 06:56:22;;;;;;;0.40;0.40;;;8.70;99.90;;;;;;4972862;28;20027;-86
2023/12/23 06:58:48;;;;;;;0.45;0.45;;;8.70;99.90;;;;;;4972044;28;20056;-85
2023/12/23 07:01:14;;;;;;;0.50;0.50;;;8.70;99.90;;;;;;4953938;28;20489;-85
2023/12/23 07:03:43;;;;;;;0.55;0.43;;;8.70;99.90;;;;;;4968587;28;20158;-86
2023/12/23 07:06:12;;;;;;;0.60;0.60;;;8.70;99.90;;;;;;4967767;28;20529;-85
2023/12/23 07:08:39;;;;;;;0.60;0.60;;;8.70;99.90;;;;;;4957714;28;20041;-86
2023/12/23 07:11:05;;;;;;;1.55;0.70;;;8.70;99.90;;;;;;4954225;28;20027;-86
2023/12/23 07:13:30;;;;;;;0.40;0.40;;;8.70;99.90;;;;;;4955104;28;20018;-86
2023/12/23 07:15:56;;;;;;;0.77;0.50;;;8.70;99.90;;;;;;4970579;28;20026;-86
2023/12/23 07:18:21;;;;;;;0.40;0.40;;;8.70;99.90;;;;;;4953557;28;20018;-86
2023/12/23 07:20:47;;;;;;;0.43;0.43;;;8.70;99.90;;;;;;4971976;28;20081;-86
2023/12/23 07:23:13;;;;;;;1.95;0.57;;;8.70;99.90;;;;;;4971531;28;20015;-86
2023/12/23 07:25:39;;;;;;;0.40;0.40;;;8.70;99.90;;;;;;4969751;28;20027;-85
2023/12/23 07:28:05;;;;;;;0.52;0.52;;;8.70;99.90;;;;;;4967030;28;20015;-87
2023/12/23 07:30:30;;;;;;;0.40;0.40;;;8.70;99.90;;;;;;4972753;28;20535;-87
2023/12/23 07:32:56;;;;;;;1.13;0.40;;;8.70;99.90;;;;;;4955004;28;20023;-87
2023/12/23 07:35:22;;;;;;;1.23;0.43;;;8.70;99.90;;;;;;4956189;28;20029;-88
2023/12/23 07:37:47;;;;;;;0.40;0.40;;;8.70;99.90;;;;;;4953634;28;20085;-85
2023/12/23 07:40:13;;;;;;;0.40;0.40;;;8.70;99.90;;;;;;4950757;28;20082;-87
2023/12/23 07:42:38;;;;;;;0.50;0.50;;;8.70;99.90;;;;;;4951611;28;20022;-86
2023/12/23 07:45:04;;;;;;;1.25;0.50;;;8.70;99.90;;;;;;4954658;28;20031;-85
2023/12/23 07:47:30;;;;;;;1.10;0.70;;;8.70;99.90;;;;;;4972283;28;20027;-86
2023/12/23 07:49:56;;;;;;;1.77;0.90;;;8.70;99.90;;;;;;4955831;28;20033;-87
2023/12/23 07:52:21;;;;;;;0.93;0.70;;;8.70;99.90;;;;;;4967119;28;20495;-86
2023/12/23 07:54:47;;;;;;;0.85;0.80;;;8.60;99.90;;;;;;4969019;28;20023;-85
2023/12/23 07:57:13;;;;;;;0.95;0.70;;;8.70;99.90;;;;;;4947155;28;20031;-85
2023/12/23 07:59:39;;;;;;;1.77;1.00;;;8.70;99.90;;;;;;4971618;28;20027;-85
2023/12/23 08:02:05;;;;;;;1.30;0.90;;;8.70;99.90;;;;;;4971554;28;20026;-85
2023/12/23 08:04:31;;;;;;;1.70;0.98;;;8.70;99.90;;;;;;4951492;28;20034;-86
2023/12/23 08:06:57;;;;;;;4.50;1.27;;;8.70;99.90;;;;;;4952705;28;20052;-86
2023/12/23 08:09:22;;;;;;;3.28;1.25;;;8.70;99.90;;;;;;4971849;28;20050;-87
2023/12/23 08:11:48;;;;;;;5.03;1.40;;;8.70;99.90;;;;;;4971212;28;20026;-86
2023/12/23 08:14:14;;;;;;;5.50;1.50;;;8.70;99.90;;;;;;4968864;28;20037;-85
2023/12/23 08:16:39;;;;;;;6.90;1.60;;;8.70;99.90;;;;;;4955721;28;20515;-86
2023/12/23 08:19:05;;;;;;;1.90;1.25;;;8.70;99.90;;;;;;4959323;28;20050;-86
2023/12/23 08:21:31;;;;;;;3.28;1.50;;;8.70;99.90;;;;;;4953497;28;20028;-87
2023/12/23 08:23:56;;;;;;;2.75;1.30;;;8.70;99.90;;;;;;4967289;28;20015;-86
2023/12/23 08:26:23;;;;;;;2.25;0.95;;;8.70;99.90;;;;;;4960163;28;20081;-86
2023/12/23 08:28:48;;;;;;;3.80;1.33;;;8.70;99.90;;;;;;4953741;28;20093;-85
2023/12/23 08:31:14;;;;;;;2.17;1.10;;;8.70;99.90;;;;;;4968769;28;20536;-84
2023/12/23 08:33:39;;;;;;;0.98;0.80;;;8.70;99.90;;;;;;4954495;28;20023;-87
2023/12/23 08:36:05;;;;;;;1.05;0.80;;;8.70;99.90;;;;;;4957587;28;20034;-86
2023/12/23 08:38:31;;;;;;;0.90;0.80;;;8.70;99.90;;;;;;4954333;28;20026;-84
2023/12/23 08:40:56;;;;;;;1.48;0.80;;;8.70;99.90;;;;;;4967891;28;20532;-87
2023/12/23 08:43:22;;;;;;;0.75;0.75;;;8.70;99.90;;;;;;4954540;28;20019;-87
2023/12/23 08:45:48;;;;;;;0.50;0.50;;;8.70;99.90;;;;;;4950524;28;20050;-86
2023/12/23 08:48:13;;;;;;;1.02;0.80;;;8.70;99.90;;;;;;4970881;28;20720;-86
2023/12/23 08:50:39;;;;;;;0.65;0.60;;;8.70;99.90;;;;;;4953281;28;20030;-85
2023/12/23 08:53:04;;;;;;;0.60;0.60;;;8.70;99.90;;;;;;4954084;28;20616;-87
2023/12/23 08:55:30;;;;;;;0.60;0.60;;;8.70;99.90;;;;;;4970560;28;20037;-86
2023/12/23 08:57:55;;;;;;;0.90;0.73;;;8.70;99.90;;;;;;4954726;28;20493;-86
2023/12/23 09:00:21;;;;;;;0.50;0.50;;;8.70;99.90;;;;;;4953103;28;20543;-85
2023/12/23 09:02:47;;;;;;;0.93;0.60;;;8.70;99.90;;;;;;4952381;28;20027;-87
2023/12/23 09:05:12;;;;;;;0.40;0.40;;;8.70;99.90;;;;;;4970281;28;20162;-88
2023/12/23 09:07:38;;;;;;;0.47;0.45;;;8.70;99.90;;;;;;4953278;28;20098;-86
2023/12/23 09:10:05;;;;;;;0.50;0.50;;;8.70;99.90;;;;;;4970196;28;20041;-86
2023/12/23 09:12:33;;;;;;;0.50;0.50;;;8.70;99.90;;;;;;4953024;28;20019;-87
2023/12/23 09:14:58;;;;;;;0.60;0.60;;;8.70;99.90;;;;;;4953440;28;20366;-86
2023/12/23 09:17:24;;;;;;;0.50;0.50;;;8.70;99.90;;;;;;4969906;28;20042;-86
2023/12/23 09:19:50;;;;;;;0.50;0.50;;;8.70;99.90;;;;;;4969419;28;20051;-86
2023/12/23 09:22:15;;;;;;;0.50;0.50;;;8.70;99.90;;;;;;4970197;28;20031;-86
2023/12/23 09:24:43;;;;;;;0.60;0.60;;;8.70;99.90;;;;;;4953070;28;20073;-85
2023/12/23 09:27:09;;;;;;;0.63;0.52;;;8.70;99.90;;;;;;4968782;28;20366;-87
2023/12/23 09:29:35;;;;;;;0.40;0.40;;;8.70;99.90;;;;;;4951413;28;20524;-87
2023/12/23 09:32:00;;;;;;;0.43;0.43;;;8.70;99.90;;;;;;4966113;28;20027;-87
2023/12/23 09:34:26;;;;;;;0.50;0.50;;;8.70;99.90;;;;;;4953569;28;20066;-86
2023/12/23 09:36:52;;;;;;;0.57;0.55;;;8.70;99.90;;;;;;4953327;28;20019;-86
2023/12/23 09:39:18;;;;;;;3.20;0.60;;;8.70;99.90;;;;;;4968132;28;20027;-86
2023/12/23 09:41:44;;;;;;;1.20;0.77;;;8.70;99.90;;;;;;4952497;28;20532;-86
2023/12/23 09:44:10;;;;;;;0.60;0.60;;;8.70;99.90;;;;;;4953413;28;20109;-88
2023/12/23 09:46:38;;;;;;;0.50;0.50;;;8.70;99.90;;;;;;4949764;28;20182;-86
2023/12/23 09:49:04;;;;;;;0.63;0.63;;;8.70;99.90;;;;;;4966823;28;20026;-88
2023/12/23 09:51:32;;;;;;;0.57;0.57;;;8.70;99.90;;;;;;4968870;28;20035;-87
2023/12/23 09:54:01;;;;;;;0.65;0.50;;;8.70;99.90;;;;;;4966684;28;20477;-85
2023/12/23 09:56:30;;;;;;;0.68;0.68;;;8.70;99.90;;;;;;4952235;28;20031;-87
2023/12/23 09:58:56;;;;;;;0.60;0.60;;;8.70;99.90;;;;;;4953137;28;20041;-85
2023/12/23 10:01:22;;;;;;;2.63;0.63;;;8.70;99.90;;;;;;4969560;28;20026;-87
2023/12/23 10:03:49;;;;;;;1.27;0.80;;;8.70;99.90;;;;;;4969218;28;20995;-85
2023/12/23 10:06:15;;;;;;;8.40;0.80;;;8.70;99.90;;;;;;4973536;28;20161;-87
2023/12/23 10:08:42;;;;;;;2.53;0.63;;;10.90;99.90;;;;;;4973685;28;20187;-85
2023/12/23 10:11:07;;;;;;;0.55;0.40;;;12.10;99.90;;;;;;4955869;28;20035;-86
2023/12/23 10:13:34;;;;;;;0.43;0.43;;;12.60;99.90;;;;;;4973883;28;20027;-86
2023/12/23 10:16:00;;;;;;;2.13;0.55;;;12.60;99.90;;;;;;4964373;28;20065;-86
2023/12/23 10:18:25;;;;;;;0.50;0.50;;;12.80;99.90;;;;;;4952551;28;20402;-87
2023/12/23 10:20:51;;;;;;;1.33;0.50;;;12.90;99.90;;;;;;4956641;28;20019;-86
2023/12/23 10:23:16;;;;;;;0.50;0.50;;;13.00;99.90;;;;;;4954970;28;20063;-87
2023/12/23 10:25:42;;;;;;;0.75;0.43;;;12.40;99.90;;;;;;4973343;28;20102;-87
2023/12/23 10:28:09;;;;;;;1.42;0.50;;;11.00;99.90;;;;;;4955011;28;20452;-86
2023/12/23 10:30:39;;;;;;;0.82;0.40;;;10.20;99.90;;;;;;4956940;28;20042;-87
2023/12/23 10:33:06;;;;;;;;;;;9.60;99.90;;;;;;4956982;28;20022;-87
2023/12/23 10:35:45;;;;;;;0.47;0.47;;;9.30;99.90;;;;;;4957546;28;20000;-86
2023/12/23 10:38:16;;;;;;;0.40;0.40;;;9.20;99.90;;;;;;4960126;28;20066;-88
2023/12/23 10:40:46;;;;;;;0.40;0.40;;;9.10;99.90;;;;;;4978686;28;20019;-88
2023/12/23 10:43:13;;;;;;;1.35;0.60;;;9.00;99.90;;;;;;4964372;28;20027;-87
2023/12/23 10:45:41;;;;;;;0.50;0.50;;;9.00;99.90;;;;;;4963343;28;20485;-87
2023/12/23 10:48:09;;;;;;;0.50;0.50;;;9.00;99.90;;;;;;4960412;28;20397;-86
2023/12/23 10:50:35;;;;;;;0.55;0.50;;;8.90;99.90;;;;;;4979889;28;20070;-88
2023/12/23 10:53:03;;;;;;;0.65;0.50;;;8.90;99.90;;;;;;4980116;28;20075;-86
2023/12/23 10:55:30;;;;;;;0.50;0.50;;;8.90;99.90;;;;;;4961485;28;20673;-87
2023/12/23 10:57:57;;;;;;;0.50;0.50;;;8.90;99.90;;;;;;4973948;28;20090;-87
2023/12/23 11:00:23;;;;;;;0.50;0.50;;;8.90;99.90;;;;;;4976721;28;20492;-87
2023/12/23 11:02:53;;;;;;;0.50;0.50;;;8.90;99.90;;;;;;4980192;28;20015;-89
2023/12/23 11:05:20;;;;;;;0.40;0.40;;;8.80;99.90;;;;;;4953971;28;20041;-86
2023/12/23 11:07:48;;;;;;;0.50;0.50;;;8.90;99.90;;;;;;4953142;28;20023;-88
2023/12/23 11:10:16;;;;;;;3.55;0.57;;;8.90;99.90;;;;;;4968868;28;20069;-86
2023/12/23 11:12:43;;;;;;;0.32;0.32;;;8.80;99.90;;;;;;4956162;28;20031;-86
2023/12/23 11:15:09;;;;;;;0.40;0.40;;;8.80;99.90;;;;;;4972099;28;20465;-86
2023/12/23 11:17:40;;;;;;;0.50;0.50;;;8.80;99.90;;;;;;4954444;28;20063;-87
2023/12/23 11:20:07;;;;;;;1.35;0.73;;;8.80;99.90;;;;;;4966931;28;20034;-86
2023/12/23 11:22:38;;;;;;;0.40;0.40;;;8.80;99.90;;;;;;4957441;28;20097;-87
2023/12/23 11:25:04;;;;;;;0.55;0.50;;;8.80;99.90;;;;;;4953573;28;20069;-85
2023/12/23 11:27:37;;;;;;;1.02;0.70;;;8.80;99.90;;;;;;4954352;28;20046;-88
2023/12/23 11:30:07;;;;;;;0.98;0.60;;;8.80;99.90;;;;;;4971490;28;20058;-86
2023/12/23 11:32:41;;;;;;;0.63;0.60;;;8.80;99.90;;;;;;4955023;28;20035;-85
2023/12/23 11:35:09;;;;;;;0.60;0.60;;;8.80;99.90;;;;;;4970276;28;20034;-86
2023/12/23 11:37:54;;;;;;;0.50;0.50;;;8.80;99.90;;;;;;4972128;28;20022;-86
2023/12/23 11:40:21;;;;;;;3.33;0.60;;;8.80;99.90;;;;;;4946227;28;20138;-87
2023/12/23 11:42:47;;;;;;;0.40;0.40;;;8.80;99.90;;;;;;4955012;28;20023;-86
2023/12/23 11:45:14;;;;;;;0.60;0.60;;;8.80;99.90;;;;;;4953584;28;20058;-87
2023/12/23 11:47:40;;;;;;;0.43;0.40;;;8.80;99.90;;;;;;4954037;28;20027;-88
2023/12/23 11:50:07;;;;;;;0.50;0.50;;;8.80;99.90;;;;;;4951266;28;20571;-87
2023/12/23 11:52:33;;;;;;;0.52;0.52;;;8.80;99.90;;;;;;4952205;28;20027;-88
2023/12/23 11:54:59;;;;;;;0.60;0.60;;;8.80;99.90;;;;;;4971712;28;20030;-87
2023/12/23 11:57:24;;;;;;;0.47;0.43;;;8.80;99.90;;;;;;4968608;28;20600;-86
2023/12/23 11:59:50;;;;;;;1.27;0.75;;;8.80;99.90;;;;;;4970038;28;20046;-87
2023/12/23 12:02:16;;;;;;;1.60;0.70;;;8.80;99.90;;;;;;4971324;28;20041;-86
2023/12/23 12:04:41;;;;;;;0.70;0.70;;;8.80;99.90;;;;;;4954005;28;20033;-87
2023/12/23 12:07:07;;;;;;;3.33;0.80;;;8.80;99.90;;;;;;4971889;28;20033;-88
2023/12/23 12:09:32;;;;;;;2.22;0.80;;;8.80;99.90;;;;;;4968965;28;20030;-86
2023/12/23 12:12:02;;;;;;;1.00;0.90;;;8.80;99.90;;;;;;4969228;28;20098;-87
2023/12/23 12:14:27;;;;;;;0.80;0.80;;;8.80;99.90;;;;;;4965057;28;20054;-88
2023/12/23 12:16:53;;;;;;;2.63;0.90;;;8.80;99.90;;;;;;4956786;28;20683;-87
2023/12/23 12:19:19;;;;;;;1.70;0.80;;;8.80;99.90;;;;;;4954176;28;20027;-87
2023/12/23 12:21:46;;;;;;;1.42;0.80;;;8.80;99.90;;;;;;4970477;28;20047;-88
2023/12/23 12:24:11;;;;;;;0.75;0.73;;;8.80;99.90;;;;;;4956016;28;20536;-87
2023/12/23 12:26:37;;;;;;;0.70;0.70;;;8.80;99.90;;;;;;4971023;28;20035;-88
2023/12/23 12:29:06;;;;;;;1.05;0.70;;;8.80;99.90;;;;;;4955920;28;20058;-87
2023/12/23 12:31:32;;;;;;;1.23;0.73;;;8.80;99.90;;;;;;4971123;28;20093;-88
2023/12/23 12:33:58;;;;;;;0.65;0.65;;;8.80;99.90;;;;;;4958324;28;20633;-86
2023/12/23 12:36:24;;;;;;;0.80;0.77;;;8.80;99.90;;;;;;4956611;28;20085;-87
2023/12/23 12:38:50;;;;;;;1.30;0.77;;;8.80;99.90;;;;;;4962919;28;20050;-87
2023/12/23 12:41:16;;;;;;;0.75;0.73;;;8.80;99.90;;;;;;4946862;28;20090;-88
2023/12/23 12:43:43;;;;;;;0.98;0.60;;;8.80;99.90;;;;;;4953092;28;20094;-86
2023/12/23 12:46:09;;;;;;;2.83;0.90;;;8.80;99.90;;;;;;4949930;29;20027;-87
2023/12/23 12:48:35;;;;;;;1.60;0.93;;;8.80;99.90;;;;;;4959152;28;20027;-86
2023/12/23 12:51:01;;;;;;;1.67;1.10;;;8.80;99.90;;;;;;4949245;28;20022;-87